KRDU

Raleigh-Durham International Airport

Raleigh/Durham, North Carolina, USA
KRDU 181130Z 1812/1912 VRB05KT P6SM FEW070 SCT250 FM181800 27005KT P6SM SCT070 SCT250
Issued Valid From Valid To
Jun-18 @ 11:30 UTC
(2 hours ago)
Jun-18 @ 12:00 UTC
(an hour ago)
Jun-19 @ 12:00 UTC
(in 23 hours)
Jun-18 @ 12:00 to Jun-18 @ 18:00
KRDU 181130Z 1812/1912 VRB05KT P6SM FEW070 SCT250
Wind Visibility Clouds
Variable at 5 knots Greater than 6 miles
  • Few at 7,000' AGL
  • Scattered at 25,000' AGL
From Jun-18 @ 18:00 to Jun-19 @ 12:00
FM181800 27005KT P6SM SCT070 SCT250
Wind Visibility Clouds
270° at 5 knots Greater than 6 miles
  • Scattered at 7,000' AGL
  • Scattered at 25,000' AGL
KRDU 181130Z 1812/1912 VRB05KT P6SM FEW070 SCT250 FM181800 27005KT P6SM SCT070 SCT250
Issued Jun-18 @ 11:30 UTC
(2 hours ago)
Valid From Jun-18 @ 12:00 UTC
(an hour ago)
Valid To Jun-19 @ 12:00 UTC
(in 23 hours)
Jun-18 @ 12:00 - Jun-18 @ 18:00
Wind Visibility
Variable at 5 knots Greater than 6 miles
Clouds
  • Few at 7,000' AGL
  • Scattered at 25,000' AGL
From Jun-18 @ 18:00 - Jun-19 @ 12:00
Wind Visibility
270° at 5 knots Greater than 6 miles
Clouds
  • Scattered at 7,000' AGL
  • Scattered at 25,000' AGL